Aeroporto :
LOGIN :

Iscrizione | Disclaimer

   EN    FR    IT 

 










Sommario :    VFR   VFR Marginale   IFR   IFR Intensivo   IFR Molto Intensivo
Visibilità : 
Base nubi : 
>= 8 km
>= 3000ft
5 / 8 km
1000 / 3000 ft
1500m / 5 km
500 / 1000 ft
800 / 1500m
200 / 500 ft
< 800m
< 200 ft
Simboli :   Temporali  Nebbia  Neve Forte  Precipitazioni Forti  Vento > 20 kt
SIGMETs :   Varie  Temporali  Ghiacco  Turbolenza  Onda orograficha  Ceneri Vulcaniche






- Altitudine del aeroporto : 705 ft
- Codice IATA : LYC


ESNL - Lycksele

ULTIMO METAR :
  • 061750Z AUTO VRB02KT 9999 SCT100/// M03/M04 Q0980

METARs OBSOLETI :
  • 061720Z AUTO VRB02KT 9999 FEW087/// SCT110/// M03/M03 Q0980
  • 061650Z AUTO 00000KT 9999 BKN084/// M04/M05 Q0980
  • 061620Z AUTO VRB02KT 9999 BKN083/// M05/M06 Q0980
  • 061550Z 00000KT CAVOK M06/M06 Q0980
  • 061520Z VRB03KT CAVOK M08/M09 Q0980

TAF N/A



MetMap, La meteo Aeronautica in un colpo d'occhio ! - Copyright ORBIFLY Dicembre 2007 - Disclaimer

ORBIFLY MET'MAP TEAM :

Programmazione e sviluppo : Alexandra Zaïnal
Concezione : Baudouin d'Aumeries
Aiuto per la programmazione : Marc-Olivier Méhu
Supporto tecnico e logistico : Manuel Goepfert
Aiuto per la traduzione : Arnaldo La Scala

Contatto : metmap@orbifly.com




FONTI E CREDITI :

   NOAA